Ana Sayfa
METAR-TAF:

METAR-TAF

Havaalanları :

Morristown, New Jersey, Amerika Birleşik Devletleri

Enlem: 40-48N, Boylam: 074-25W, yükseklik: 57 m

Güncel hava durumu gözlemi

Rapor saat 14:46 UTC de 1 saat ve 8 dakika önce yapıldı.
Rüzgar kuzey/kuzeybatıdan 11 kt ve 29 kt'a kadar ani rüzgarlar
Sıcaklık 9°C
Nem 49%
Basınç 1007 hPa
Görüş mesafesi: 16.1 km
4300 ft yükseklikte parçalı çok bulutlu

METAR: KMMU 021446Z 34011G29KT 10SM BKN043 09/M01 A2975

Saat: 11:54 (15:54 UTC)


TAF: eksik

4.000'den fazla havaalanı için hava durumu gözlemleri ve tahminleri (METAR ve TAF raporları).

Kullanılabilir istasyonlar harita üzerinde sarı ve kırmızı noktalarla gösterilir.

İstasyonun adını görmek için fareyi noktanın üzerinde gezdirin.

Sonrasında hava gözlem ve tahminlerini görmek için tıklayın.

Haritayı değiştirmek için: yaklaştırmak için siyah artı işaretli yeşil düğmeye ve uzaklaştırmak için de eksi işaretli düğmeye hızla tıklayın; bitişik haritalar için yeşil okları kullanın.


METAR-TAF: